createdAt,value
2019-05-30T00:02:35.229Z,19.3
2019-05-30T00:04:43.935Z,27.9
2019-05-30T00:06:52.306Z,25.9
2019-05-30T00:08:52.381Z,43.5
2019-05-30T00:10:35.263Z,35.2
2019-05-30T00:12:35.745Z,30.2
2019-05-30T00:14:35.415Z,37.8
2019-05-30T00:16:35.810Z,27.3
2019-05-30T00:18:35.434Z,44.4
2019-05-30T00:20:36.018Z,39.1
2019-05-30T00:22:35.447Z,55
2019-05-30T00:24:35.962Z,64.3
2019-05-30T00:26:36.565Z,74.5
2019-05-30T00:28:35.995Z,54.7
2019-05-30T00:30:35.569Z,44.7
2019-05-30T00:32:36.018Z,51
2019-05-30T00:34:35.730Z,39.6
2019-05-30T00:36:35.206Z,70.4
2019-05-30T00:38:35.879Z,69.9
2019-05-30T00:40:35.458Z,52.4
2019-05-30T00:42:35.971Z,53.7
2019-05-30T00:44:35.503Z,40.3
2019-05-30T00:46:36.060Z,40.1
2019-05-30T00:48:36.613Z,55.4
2019-05-30T00:50:36.130Z,51.8
2019-05-30T00:52:35.479Z,61.9
2019-05-30T00:54:35.989Z,73.2
2019-05-30T00:56:35.532Z,42.4
2019-05-30T00:58:36.001Z,53.9
2019-05-30T01:00:43.127Z,47.7
2019-05-30T01:02:35.606Z,60.5
2019-05-30T01:04:35.063Z,42
2019-05-30T01:06:35.623Z,45.8
2019-05-30T01:08:35.987Z,50.8
2019-05-30T01:10:36.602Z,55.2
2019-05-30T01:12:35.046Z,51.3
2019-05-30T01:14:35.426Z,73.3
2019-05-30T01:16:35.999Z,75.8
2019-05-30T01:18:35.557Z,29.1
2019-05-30T01:20:36.148Z,31.3
2019-05-30T01:22:35.520Z,30.2
2019-05-30T01:24:34.984Z,28.2
2019-05-30T01:26:35.513Z,59.1
2019-05-30T01:28:36.022Z,73.5
2019-05-30T01:30:35.662Z,38
2019-05-30T01:32:35.250Z,45.7
2019-05-30T01:34:34.825Z,36.3
2019-05-30T01:36:35.451Z,38.3
2019-05-30T01:38:35.915Z,32.1
2019-05-30T01:40:35.629Z,42.1
2019-05-30T01:42:36.015Z,55.7
2019-05-30T01:44:36.521Z,48.3
2019-05-30T01:46:36.112Z,57.5
2019-05-30T01:48:35.585Z,52.9
2019-05-30T01:50:36.055Z,47.4
2019-05-30T01:52:35.462Z,57.9
2019-05-30T01:54:35.938Z,48
2019-05-30T01:56:35.508Z,37.7
2019-05-30T01:58:34.968Z,32.5
2019-05-30T02:00:35.651Z,71.8
2019-05-30T02:02:36.180Z,65.3
2019-05-30T02:04:44.009Z,34.5
2019-05-30T02:06:47.352Z,28.3
2019-05-30T02:08:43.821Z,29.8
2019-05-30T02:10:44.384Z,62.7
2019-05-30T02:12:35.846Z,24.1
2019-05-30T02:14:36.321Z,21.7
2019-05-30T02:16:34.995Z,53.4
2019-05-30T02:18:35.524Z,41.9
2019-05-30T02:20:35.097Z,30
2019-05-30T02:22:35.610Z,42.4
2019-05-30T02:24:35.074Z,26.2
2019-05-30T02:26:36.552Z,37.2
2019-05-30T02:28:36.034Z,43.7
2019-05-30T02:30:35.656Z,27.6
2019-05-30T02:32:35.145Z,33.3
2019-05-30T02:34:35.630Z,21.3
2019-05-30T02:36:36.212Z,52
2019-05-30T02:38:35.624Z,24.6
2019-05-30T02:40:36.132Z,51
2019-05-30T02:42:35.598Z,40.3
2019-05-30T02:44:35.097Z,39.2
2019-05-30T02:46:36.646Z,21.8
2019-05-30T02:48:37.826Z,28.6
2019-05-30T02:50:36.516Z,30
2019-05-30T02:52:35.969Z,43.4
2019-05-30T02:54:35.472Z,18.1
2019-05-30T02:56:35.409Z,35.1
2019-05-30T02:58:34.957Z,24.7
2019-05-30T03:00:35.614Z,15.6
2019-05-30T03:02:35.370Z,23
2019-05-30T03:04:35.983Z,31.2
2019-05-30T03:06:36.125Z,25.8
2019-05-30T03:08:35.841Z,30.2
2019-05-30T03:10:35.526Z,14.7
2019-05-30T03:12:36.107Z,13.5
2019-05-30T03:14:35.743Z,5.2
2019-05-30T03:16:35.438Z,4.6
2019-05-30T03:18:35.149Z,4
2019-05-30T03:20:35.930Z,3.8
2019-05-30T03:22:35.499Z,4.2
2019-05-30T03:24:36.072Z,3
2019-05-30T03:26:35.798Z,2.3
2019-05-30T03:28:35.353Z,2.5
2019-05-30T03:30:36.042Z,2.5
2019-05-30T03:33:03.189Z,0.9
2019-05-30T03:34:36.107Z,2.1
2019-05-30T03:36:35.825Z,3.3
2019-05-30T03:38:35.547Z,3.6
2019-05-30T03:40:36.260Z,3.2
2019-05-30T03:42:34.967Z,3.3
2019-05-30T03:46:47.869Z,2.1
2019-05-30T03:48:36.284Z,1.7
2019-05-30T03:50:35.892Z,3.7
2019-05-30T03:52:35.542Z,1.8
2019-05-30T03:54:35.667Z,3.5
2019-05-30T03:56:36.309Z,2.8
2019-05-30T03:58:35.959Z,2.7
2019-05-30T04:02:55.040Z,3.6
2019-05-30T04:04:35.192Z,2.1
2019-05-30T04:06:35.943Z,2.7
2019-05-30T04:08:36.593Z,1.4
2019-05-30T04:10:36.163Z,4.2
2019-05-30T04:12:35.877Z,2.3
2019-05-30T04:14:35.309Z,2.6
2019-05-30T04:16:35.038Z,5.2
2019-05-30T04:18:34.823Z,3.5
2019-05-30T04:20:35.545Z,4.4
2019-05-30T04:22:36.169Z,3.5
2019-05-30T04:24:35.636Z,2.9
2019-05-30T04:26:35.398Z,2.6
2019-05-30T04:28:35.964Z,3.1
2019-05-30T04:30:35.580Z,4.3
2019-05-30T04:32:36.120Z,4
2019-05-30T04:34:35.600Z,1.4
2019-05-30T04:36:35.332Z,1.1
2019-05-30T04:38:35.838Z,1.2
2019-05-30T04:40:35.503Z,1.3
2019-05-30T04:42:35.137Z,1.8
2019-05-30T04:44:35.736Z,3.4
2019-05-30T04:46:35.503Z,2.7
2019-05-30T04:48:35.158Z,2.5
2019-05-30T04:50:34.862Z,1.2
2019-05-30T04:52:35.572Z,2.7
2019-05-30T04:54:36.031Z,1.4
2019-05-30T04:56:36.204Z,2.1
2019-05-30T04:58:40.488Z,0.6
2019-05-30T05:02:36.639Z,1
2019-05-30T05:04:36.006Z,1.7
2019-05-30T05:06:35.633Z,2.7
2019-05-30T05:08:35.268Z,1.7
2019-05-30T05:10:35.954Z,1.1
2019-05-30T05:12:35.581Z,2.7
2019-05-30T05:14:36.051Z,0.8
2019-05-30T05:16:36.392Z,1.2
2019-05-30T05:18:35.278Z,2.7
2019-05-30T05:20:36.269Z,3.4
2019-05-30T05:22:36.080Z,2.7
2019-05-30T05:24:35.449Z,9.6
2019-05-30T05:26:36.034Z,3
2019-05-30T05:28:35.433Z,4.3
2019-05-30T05:30:35.936Z,2.7
2019-05-30T05:32:35.619Z,4.4
2019-05-30T05:34:34.989Z,3.5
2019-05-30T05:36:35.536Z,8.8
2019-05-30T05:38:36.277Z,9
2019-05-30T05:40:35.788Z,6.2
2019-05-30T05:42:35.408Z,9
2019-05-30T05:44:34.735Z,5.4
2019-05-30T05:46:36.281Z,9
2019-05-30T05:48:35.655Z,10.3
2019-05-30T05:50:36.164Z,10.2
2019-05-30T05:52:35.612Z,9.3
2019-05-30T05:54:34.980Z,7.9
2019-05-30T05:56:36.548Z,8
2019-05-30T05:58:36.483Z,9.5
2019-05-30T06:00:35.962Z,13.1
2019-05-30T06:02:35.502Z,14.1
2019-05-30T06:04:35.823Z,14.8
2019-05-30T06:06:35.384Z,15.3
2019-05-30T06:08:34.807Z,16
2019-05-30T06:10:35.367Z,18.7
2019-05-30T06:12:35.789Z,18
2019-05-30T06:14:35.472Z,17
2019-05-30T06:16:35.090Z,14.8
2019-05-30T06:18:35.622Z,14.7
2019-05-30T06:20:35.196Z,15.9
2019-05-30T06:22:35.639Z,16.8
2019-05-30T06:24:36.082Z,19.7
2019-05-30T06:26:35.759Z,21.6
2019-05-30T06:28:36.167Z,19.1
2019-05-30T06:30:35.766Z,16.5
2019-05-30T06:32:35.256Z,15.6
2019-05-30T06:34:38.740Z,12.9
2019-05-30T06:36:35.669Z,17.2
2019-05-30T06:38:36.211Z,18.4
2019-05-30T06:40:35.794Z,22.2
2019-05-30T06:42:35.604Z,18.1
2019-05-30T06:44:36.193Z,24.1
2019-05-30T06:46:35.951Z,25.5
2019-05-30T06:48:35.395Z,29.1
2019-05-30T06:50:35.963Z,29
2019-05-30T06:52:35.394Z,26.3
2019-05-30T06:54:35.960Z,25.1
2019-05-30T06:56:36.528Z,22.9
2019-05-30T06:58:47.710Z,24.6
2019-05-30T07:00:36.391Z,22.4
2019-05-30T07:02:35.825Z,25.4
2019-05-30T07:04:50.665Z,22.6
2019-05-30T07:06:36.461Z,25
2019-05-30T07:08:35.863Z,24.1
2019-05-30T07:10:36.301Z,23.8
2019-05-30T07:12:35.883Z,23.6
2019-05-30T07:14:35.306Z,22.5
2019-05-30T07:16:35.988Z,24.2
2019-05-30T07:18:36.691Z,23.4
2019-05-30T07:20:35.516Z,25.2
2019-05-30T07:22:35.101Z,20.5
2019-05-30T07:24:35.605Z,20.2
2019-05-30T07:26:36.270Z,20.3
2019-05-30T07:28:35.892Z,21.4
2019-05-30T07:30:35.448Z,21.5
2019-05-30T07:32:35.946Z,25.8
2019-05-30T07:34:35.422Z,22.6
2019-05-30T07:36:36.305Z,22.1
2019-05-30T07:38:35.777Z,20.9
2019-05-30T07:40:36.355Z,22.8
2019-05-30T07:42:35.830Z,21.9
2019-05-30T07:44:36.388Z,20.7
2019-05-30T07:46:35.262Z,19.9
2019-05-30T07:48:34.969Z,19.9
2019-05-30T07:50:35.485Z,20.8
2019-05-30T07:52:35.995Z,18.4
2019-05-30T07:54:35.426Z,19.4
2019-05-30T07:56:35.878Z,20.2
2019-05-30T07:58:37.312Z,20.4
2019-05-30T08:02:35.776Z,19.7
2019-05-30T08:04:35.756Z,17.2
2019-05-30T08:06:35.867Z,17.8
2019-05-30T08:08:36.336Z,16.1
2019-05-30T08:10:36.118Z,17.4
2019-05-30T08:12:36.169Z,16.9
2019-05-30T08:14:37.343Z,16.1
2019-05-30T08:16:35.985Z,18.1
2019-05-30T08:18:35.964Z,16.3
2019-05-30T08:20:35.974Z,18.8
2019-05-30T08:22:36.157Z,17.3
2019-05-30T08:24:36.417Z,15.8
2019-05-30T08:26:36.367Z,16.1
2019-05-30T08:28:36.296Z,15.8
2019-05-30T08:30:36.619Z,17.2
2019-05-30T08:32:36.839Z,16.3
2019-05-30T08:34:34.982Z,16.8
2019-05-30T08:36:35.711Z,16.5
2019-05-30T08:38:35.555Z,16.3
2019-05-30T08:40:35.627Z,16.6
2019-05-30T08:42:35.558Z,14.4
2019-05-30T08:44:35.861Z,16.2
2019-05-30T08:46:35.957Z,18.2
2019-05-30T08:48:36.281Z,16.7
2019-05-30T08:50:40.281Z,16.6
2019-05-30T08:52:36.393Z,16
2019-05-30T08:54:36.394Z,15.4
2019-05-30T08:56:36.557Z,14.7
2019-05-30T08:58:36.776Z,15
2019-05-30T09:00:35.745Z,16.8
2019-05-30T09:02:35.256Z,16.6
2019-05-30T09:04:35.724Z,15.7
2019-05-30T09:06:35.865Z,16.2
2019-05-30T09:08:36.319Z,16.3
2019-05-30T09:10:37.463Z,14.9
2019-05-30T09:12:36.388Z,15
2019-05-30T09:14:37.288Z,15.4
2019-05-30T09:16:35.919Z,13.6
2019-05-30T09:18:36.819Z,13.8
2019-05-30T09:20:37.868Z,15
2019-05-30T09:22:37.902Z,13.1
2019-05-30T09:24:35.449Z,14.2
2019-05-30T09:26:35.991Z,15.3
2019-05-30T09:28:36.502Z,13.6
2019-05-30T09:30:36.557Z,14.5
2019-05-30T09:32:34.071Z,13.9
2019-05-30T09:34:33.936Z,12.9
2019-05-30T09:36:33.552Z,11.3
2019-05-30T09:38:33.137Z,12.7
2019-05-30T09:52:45.348Z,13.5
2019-05-30T09:54:36.736Z,10.8
2019-05-30T09:56:36.405Z,13.1
2019-05-30T09:58:36.244Z,11.9
2019-05-30T10:00:36.005Z,9.2
2019-05-30T10:02:35.598Z,10.6
2019-05-30T10:04:35.291Z,9.5
2019-05-30T10:06:34.963Z,9
2019-05-30T10:08:35.713Z,8.2
2019-05-30T10:10:36.198Z,7.4
2019-05-30T10:12:35.816Z,6.3
2019-05-30T10:14:35.516Z,9
2019-05-30T10:16:35.168Z,7.8
2019-05-30T10:18:35.097Z,7.3
2019-05-30T10:20:35.848Z,8.6
2019-05-30T10:22:37.055Z,8.5
2019-05-30T10:24:36.467Z,9.1
2019-05-30T10:26:37.592Z,9
2019-05-30T10:28:37.972Z,7.7
2019-05-30T10:30:37.047Z,8.2
2019-05-30T10:32:36.483Z,7.7
2019-05-30T10:34:36.931Z,8.1
2019-05-30T10:36:44.017Z,9
2019-05-30T10:38:36.565Z,7.3
2019-05-30T10:40:36.279Z,4.3
2019-05-30T10:42:35.922Z,3.4
2019-05-30T10:44:35.574Z,4.9
2019-05-30T10:46:36.177Z,6.8
2019-05-30T10:48:35.761Z,7.2
2019-05-30T10:50:35.410Z,6
2019-05-30T10:52:35.060Z,7.9
2019-05-30T10:54:35.973Z,5.5
2019-05-30T10:56:35.633Z,6
2019-05-30T10:58:36.725Z,4.4
2019-05-30T11:00:35.658Z,6.6
2019-05-30T11:02:36.863Z,7.3
2019-05-30T11:04:36.660Z,5.8
2019-05-30T11:06:36.484Z,7.9
2019-05-30T11:08:43.110Z,7
2019-05-30T11:10:40.854Z,4.3
2019-05-30T11:12:37.785Z,10.6
2019-05-30T11:14:39.780Z,4.9
2019-05-30T11:16:34.843Z,5.8
2019-05-30T11:18:40.255Z,6.3
2019-05-30T11:20:37.987Z,8.1
2019-05-30T11:22:38.404Z,6.8
2019-05-30T11:24:41.572Z,7.5
2019-05-30T11:26:39.184Z,10.2
2019-05-30T11:28:39.598Z,8.9
2019-05-30T11:30:38.748Z,8.7
2019-05-30T11:32:37.006Z,8.2
2019-05-30T11:34:36.928Z,8.8
2019-05-30T11:36:35.908Z,6.8
2019-05-30T11:38:37.091Z,14.1
2019-05-30T11:40:36.382Z,8
2019-05-30T11:42:36.283Z,8.4
2019-05-30T11:44:36.144Z,7.8
2019-05-30T11:46:35.950Z,6.8
2019-05-30T11:48:37.411Z,6.4
2019-05-30T11:50:37.377Z,6.6
2019-05-30T11:52:36.602Z,6.9
2019-05-30T11:54:36.484Z,6.6
2019-05-30T11:56:36.554Z,6.6
2019-05-30T11:58:36.666Z,8.2
2019-05-30T12:02:36.467Z,6.6
2019-05-30T12:04:36.162Z,5.7
2019-05-30T12:06:36.198Z,7.7
2019-05-30T12:08:36.479Z,6.4
2019-05-30T12:10:37.039Z,6.7
2019-05-30T12:12:36.515Z,7.1
2019-05-30T12:14:36.327Z,7.7
2019-05-30T12:16:36.702Z,6.4
2019-05-30T12:18:37.455Z,5.7
2019-05-30T12:20:36.072Z,7.4
2019-05-30T12:22:35.776Z,5
2019-05-30T12:24:36.148Z,4.8
2019-05-30T12:26:36.506Z,5.5
2019-05-30T12:28:36.088Z,5.8
2019-05-30T12:30:35.850Z,6.1
2019-05-30T12:32:35.316Z,5.1
2019-05-30T12:34:35.041Z,4.9
2019-05-30T12:36:35.688Z,5.5
2019-05-30T12:38:35.285Z,5.8
2019-05-30T12:40:36.015Z,5.4
2019-05-30T12:42:35.546Z,6.4
2019-05-30T12:44:35.295Z,6.4
2019-05-30T12:46:35.876Z,6
2019-05-30T12:48:35.475Z,6.6
2019-05-30T12:50:36.058Z,5.6
2019-05-30T12:52:35.492Z,5.4
2019-05-30T12:54:36.124Z,5.8
2019-05-30T12:56:35.632Z,6.1
2019-05-30T12:58:36.285Z,7.4
2019-05-30T13:00:34.827Z,4.7
2019-05-30T13:02:35.326Z,5.4
2019-05-30T13:04:36.026Z,5.2
2019-05-30T13:06:35.439Z,5.5
2019-05-30T13:08:36.209Z,6.2
2019-05-30T13:10:35.807Z,5.3
2019-05-30T13:12:35.295Z,6.1
2019-05-30T13:14:36.403Z,6.9
2019-05-30T13:16:36.014Z,5.6
2019-05-30T13:18:35.867Z,5.9
2019-05-30T13:20:36.319Z,6.2
2019-05-30T13:22:35.809Z,6.1
2019-05-30T13:24:36.537Z,4.9
2019-05-30T13:26:36.084Z,5.6
2019-05-30T13:28:35.838Z,6.1
2019-05-30T13:30:35.878Z,6.7
2019-05-30T13:32:33.899Z,5.9
2019-05-30T13:34:35.571Z,6.7
2019-05-30T13:36:35.275Z,6.1
2019-05-30T13:38:34.980Z,6.3
2019-05-30T13:40:35.541Z,5.8
2019-05-30T13:42:35.125Z,5.8
2019-05-30T13:44:36.016Z,5.6
2019-05-30T13:46:36.045Z,5.6
2019-05-30T13:48:34.582Z,6.3
2019-05-30T13:50:36.264Z,5
2019-05-30T13:52:35.844Z,6.2
2019-05-30T13:54:35.701Z,5.9
2019-05-30T13:56:35.355Z,6.7
2019-05-30T13:58:35.110Z,5.6
2019-05-30T14:02:35.911Z,7.7
2019-05-30T14:04:35.650Z,12.8
2019-05-30T14:06:35.851Z,6.5
2019-05-30T14:08:41.323Z,5.9
2019-05-30T14:10:35.776Z,6.4
2019-05-30T14:12:35.834Z,5.4
2019-05-30T14:14:35.787Z,5.8
2019-05-30T14:16:35.893Z,5.8
2019-05-30T14:18:36.810Z,8.3
2019-05-30T14:20:36.750Z,5.2
2019-05-30T14:22:36.614Z,5.9
2019-05-30T14:24:36.459Z,9.2
2019-05-30T14:26:36.134Z,7
2019-05-30T14:28:35.757Z,5.3
2019-05-30T14:30:35.309Z,6.4
2019-05-30T14:32:34.787Z,5.6
2019-05-30T14:34:35.624Z,6.3
2019-05-30T14:36:36.225Z,5.5
2019-05-30T14:38:35.946Z,7.7
2019-05-30T14:40:35.400Z,6.3
2019-05-30T14:42:36.029Z,5.6
2019-05-30T14:44:36.008Z,5.2
2019-05-30T14:46:35.512Z,5.7
2019-05-30T14:48:35.249Z,5.1
2019-05-30T14:50:36.052Z,5.6
2019-05-30T14:52:35.449Z,5.7
2019-05-30T14:54:36.046Z,5.4
2019-05-30T14:56:35.568Z,4.7
2019-05-30T14:58:36.144Z,5.1
2019-05-30T15:00:35.554Z,6.1
2019-05-30T15:02:36.250Z,4.6
2019-05-30T15:04:35.843Z,4.9
2019-05-30T15:06:35.333Z,6.1
2019-05-30T15:08:36.336Z,5.5
2019-05-30T15:10:35.843Z,5
2019-05-30T15:12:35.428Z,5.1
2019-05-30T15:14:36.638Z,6.4
2019-05-30T15:16:36.118Z,5.3
2019-05-30T15:18:36.317Z,5.3
2019-05-30T15:20:35.968Z,6
2019-05-30T15:22:35.456Z,4.6
2019-05-30T15:24:36.204Z,5
2019-05-30T15:26:35.819Z,4.9
2019-05-30T15:28:36.400Z,4.9
2019-05-30T15:30:36.008Z,4.9
2019-05-30T15:32:35.511Z,5.6
2019-05-30T15:34:35.453Z,5.8
2019-05-30T15:36:35.028Z,4.5
2019-05-30T15:38:35.778Z,4.5
2019-05-30T15:40:36.376Z,5.4
2019-05-30T15:42:35.804Z,5.2
2019-05-30T15:44:35.405Z,4.4
2019-05-30T15:46:36.304Z,4.8
2019-05-30T15:48:36.081Z,4.7
2019-05-30T15:50:36.644Z,4.6
2019-05-30T15:52:36.105Z,5.4
2019-05-30T15:54:35.731Z,6
2019-05-30T15:56:35.383Z,5.6
2019-05-30T15:58:36.276Z,4.9
2019-05-30T16:02:36.153Z,5.2
2019-05-30T16:04:35.872Z,5.8
2019-05-30T16:06:35.520Z,6.7
2019-05-30T16:08:35.214Z,4.9
2019-05-30T16:10:36.817Z,5.4
2019-05-30T16:12:36.647Z,5.5
2019-05-30T16:14:36.336Z,4.8
2019-05-30T16:16:39.261Z,4.5
2019-05-30T16:18:36.082Z,4.3
2019-05-30T16:20:33.755Z,4.5
2019-05-30T16:22:33.610Z,4.5
2019-05-30T16:24:33.370Z,3.8
2019-05-30T16:26:35.896Z,4.5
2019-05-30T16:28:35.864Z,5.8
2019-05-30T16:30:38.647Z,5.3
2019-05-30T16:32:36.950Z,5.7
2019-05-30T16:34:35.992Z,6.8
2019-05-30T16:36:36.162Z,5.9
2019-05-30T16:38:36.279Z,7.1
2019-05-30T16:40:36.035Z,7.6
2019-05-30T16:42:35.657Z,5.7
2019-05-30T16:44:35.439Z,9.2
2019-05-30T16:46:36.108Z,6.9
2019-05-30T16:48:35.808Z,6.1
2019-05-30T16:50:35.978Z,6.4
2019-05-30T16:52:35.574Z,7.2
2019-05-30T16:54:35.351Z,6.9
2019-05-30T16:56:35.917Z,7.4
2019-05-30T16:58:35.558Z,7.9
2019-05-30T17:00:35.205Z,6.6
2019-05-30T17:02:35.851Z,7.5
2019-05-30T17:04:35.434Z,8
2019-05-30T17:06:36.083Z,8.2
2019-05-30T17:08:36.056Z,7.8
2019-05-30T17:10:35.731Z,8.7
2019-05-30T17:12:35.344Z,8
2019-05-30T17:14:35.874Z,7.7
2019-05-30T17:16:35.390Z,6.7
2019-05-30T17:18:35.146Z,7.5
2019-05-30T17:20:36.266Z,6
2019-05-30T17:22:34.505Z,4.6
2019-05-30T17:24:36.138Z,5.1
2019-05-30T17:26:35.585Z,6
2019-05-30T17:28:36.143Z,3.8
2019-05-30T17:30:35.880Z,4.4
2019-05-30T17:32:36.327Z,3.3
2019-05-30T17:34:36.166Z,3.7
2019-05-30T17:36:35.723Z,4
2019-05-30T17:38:35.272Z,3.4
2019-05-30T17:40:44.420Z,3.5
2019-05-30T17:42:36.366Z,3.5
2019-05-30T17:44:36.007Z,7.1
2019-05-30T17:46:35.425Z,4.1
2019-05-30T17:48:36.332Z,3.8
2019-05-30T17:50:34.434Z,3.4
2019-05-30T17:52:35.835Z,3.6
2019-05-30T17:54:36.406Z,4.9
2019-05-30T17:56:34.945Z,4.7
2019-05-30T17:58:35.476Z,3
2019-05-30T18:00:36.178Z,4.2
2019-05-30T18:02:35.738Z,4
2019-05-30T18:04:35.540Z,4.1
2019-05-30T18:06:35.286Z,4.1
2019-05-30T18:08:35.838Z,4.2
2019-05-30T18:10:36.545Z,3
2019-05-30T18:12:36.165Z,4.3
2019-05-30T18:14:35.739Z,3.5
2019-05-30T18:16:36.194Z,4.5
2019-05-30T18:18:35.724Z,4.7
2019-05-30T18:20:47.494Z,4.2
2019-05-30T18:22:35.760Z,3.1
2019-05-30T18:24:35.378Z,3.4
2019-05-30T18:26:35.952Z,3.7
2019-05-30T18:28:35.407Z,3.7
2019-05-30T18:30:35.048Z,3.2
2019-05-30T18:32:35.503Z,4.6
2019-05-30T18:34:35.201Z,4.7
2019-05-30T18:36:35.777Z,4.4
2019-05-30T18:38:35.257Z,4.6
2019-05-30T18:40:35.855Z,4.5
2019-05-30T18:42:35.399Z,4.3
2019-05-30T18:44:35.401Z,3.7
2019-05-30T18:46:38.503Z,3.8
2019-05-30T18:48:36.201Z,4.3
2019-05-30T18:50:35.903Z,4
2019-05-30T18:52:36.717Z,4
2019-05-30T18:54:36.797Z,3.7
2019-05-30T18:56:36.928Z,3.6
2019-05-30T18:58:35.489Z,3.4
2019-05-30T19:00:35.504Z,3.1
2019-05-30T19:02:35.648Z,3
2019-05-30T19:04:33.848Z,4.3
2019-05-30T19:06:36.378Z,4.2
2019-05-30T19:08:36.175Z,3.1
2019-05-30T19:10:36.559Z,4.3
2019-05-30T19:12:36.514Z,3.7
2019-05-30T19:14:36.168Z,3.7
2019-05-30T19:16:34.979Z,3.3
2019-05-30T19:18:35.744Z,3.6
2019-05-30T19:20:36.537Z,3.8
2019-05-30T19:22:36.498Z,3.3
2019-05-30T19:24:36.436Z,4
2019-05-30T19:26:36.700Z,3.8
2019-05-30T19:28:36.618Z,3.2
2019-05-30T19:30:35.207Z,5.7
2019-05-30T19:32:36.826Z,3.6
2019-05-30T19:34:36.689Z,3
2019-05-30T19:36:35.462Z,2.9
2019-05-30T19:38:35.810Z,2.6
2019-05-30T19:40:35.926Z,2.9
2019-05-30T19:42:36.178Z,2.8
2019-05-30T19:44:39.383Z,3.8
2019-05-30T19:46:36.559Z,6.1
2019-05-30T19:48:36.530Z,3.3
2019-05-30T19:50:36.722Z,2.9
2019-05-30T19:52:36.783Z,3.1
2019-05-30T19:54:35.223Z,3.2
2019-05-30T19:56:38.675Z,2.2
2019-05-30T19:58:37.600Z,4.7
2019-05-30T20:02:33.949Z,2.5
2019-05-30T20:04:34.211Z,2.8
2019-05-30T20:06:38.742Z,6
2019-05-30T20:08:50.954Z,3.1
2019-05-30T20:10:37.227Z,2.2
2019-05-30T20:12:37.015Z,2.5
2019-05-30T20:14:37.123Z,2.6
2019-05-30T20:16:35.828Z,3
2019-05-30T20:18:35.643Z,6.9
2019-05-30T20:20:50.295Z,2.5
2019-05-30T20:22:36.395Z,3.1
2019-05-30T20:24:36.122Z,2.5
2019-05-30T20:26:36.602Z,3.1
2019-05-30T20:28:35.380Z,2.9
2019-05-30T20:30:37.043Z,3.4
2019-05-30T20:32:36.415Z,3.6
2019-05-30T20:34:36.699Z,2.7
2019-05-30T20:36:34.442Z,2.8
2019-05-30T20:38:36.472Z,3.4
2019-05-30T20:40:36.862Z,3.5
2019-05-30T20:42:36.688Z,4.4
2019-05-30T20:44:35.366Z,3.7
2019-05-30T20:46:37.004Z,2.9
2019-05-30T20:48:36.663Z,3.7
2019-05-30T20:50:35.600Z,2.9
2019-05-30T20:52:38.619Z,3.4
2019-05-30T20:54:37.178Z,3.3
2019-05-30T20:56:37.292Z,3.8
2019-05-30T20:58:36.146Z,3.1
2019-05-30T21:00:35.948Z,3.6
2019-05-30T21:02:36.684Z,3.3
2019-05-30T21:04:36.902Z,3.4
2019-05-30T21:06:36.646Z,4.1
2019-05-30T21:08:35.194Z,5.9
2019-05-30T21:10:34.966Z,4.5
2019-05-30T21:12:39.162Z,4.1
2019-05-30T21:14:37.270Z,4.5
2019-05-30T21:16:35.729Z,4.4
2019-05-30T21:18:35.634Z,3.1
2019-05-30T21:20:35.909Z,2.7
2019-05-30T21:24:36.367Z,5.6
2019-05-30T21:26:34.984Z,3.2
2019-05-30T21:28:36.613Z,2.6
2019-05-30T21:30:36.687Z,2.6
2019-05-30T21:32:37.195Z,2.9
2019-05-30T21:34:35.886Z,2.9
2019-05-30T21:36:35.914Z,3.5
2019-05-30T21:38:35.678Z,2.9
2019-05-30T21:40:35.402Z,3.5
2019-05-30T21:42:35.896Z,5.5
2019-05-30T21:44:35.708Z,4.4
2019-05-30T21:53:04.439Z,4.6
2019-05-30T21:54:35.096Z,3.8
2019-05-30T21:56:35.478Z,3.7
2019-05-30T21:58:35.925Z,4.9
2019-05-30T22:00:35.601Z,9.4
2019-05-30T22:02:36.004Z,5.8
2019-05-30T22:04:44.402Z,4.6
2019-05-30T22:06:50.958Z,4.3
2019-05-30T22:08:51.509Z,5.1
2019-05-30T22:10:35.158Z,4
2019-05-30T22:12:35.917Z,4.3
2019-05-30T22:14:35.500Z,4.8
2019-05-30T22:16:36.032Z,4.4
2019-05-30T22:18:35.642Z,6.5
2019-05-30T22:20:35.123Z,4.2
2019-05-30T22:22:35.542Z,4.8
2019-05-30T22:24:36.136Z,4.8
2019-05-30T22:26:35.730Z,6.5
2019-05-30T22:28:35.154Z,5.7
2019-05-30T22:30:35.687Z,6.9
2019-05-30T22:32:36.175Z,4.1
2019-05-30T22:34:35.779Z,3.1
2019-05-30T22:36:35.294Z,12.2
2019-05-30T22:38:35.860Z,7.3
2019-05-30T22:40:35.627Z,5
2019-05-30T22:42:36.098Z,6.1
2019-05-30T22:44:35.692Z,4.4
2019-05-30T22:46:35.256Z,8.1
2019-05-30T22:48:35.680Z,6.4
2019-05-30T22:50:36.309Z,4.9
2019-05-30T22:52:35.725Z,4.3
2019-05-30T22:54:36.337Z,6.9
2019-05-30T22:56:35.857Z,6.6
2019-05-30T22:58:35.389Z,6.8
2019-05-30T23:00:35.959Z,5.5
2019-05-30T23:02:36.482Z,10.6
2019-05-30T23:04:35.963Z,6.9
2019-05-30T23:06:35.407Z,5.1
2019-05-30T23:08:35.914Z,5.9
2019-05-30T23:10:35.587Z,4.1
2019-05-30T23:12:35.046Z,6.9
2019-05-30T23:14:35.571Z,8.4
2019-05-30T23:16:36.068Z,5.5
2019-05-30T23:18:35.627Z,4.5
2019-05-30T23:20:35.187Z,4.8
2019-05-30T23:22:35.622Z,4.8
2019-05-30T23:24:35.136Z,5.7
2019-05-30T23:26:35.660Z,5.4
2019-05-30T23:28:36.148Z,6.1
2019-05-30T23:30:35.699Z,4.9
2019-05-30T23:32:35.105Z,6
2019-05-30T23:34:35.882Z,3.7
2019-05-30T23:36:36.371Z,4.3
2019-05-30T23:38:35.844Z,3.1
2019-05-30T23:40:35.600Z,7.3
2019-05-30T23:42:35.039Z,8.6
2019-05-30T23:44:35.531Z,5.7
2019-05-30T23:46:36.076Z,8.1
2019-05-30T23:48:35.590Z,8.7
2019-05-30T23:50:35.136Z,5.2
2019-05-30T23:52:35.630Z,4.8
2019-05-30T23:54:35.171Z,3.9
2019-05-30T23:56:35.608Z,6.2
2019-05-30T23:58:35.066Z,5.5
